Time;durP1;ratioP1;P1;durP2;ratioP2;P2;SDS_P1;SDS_P2;PMS_P1;PMS_P2;Temp;Humidity;BMP_temperature;BMP_pressure;BME280_temperature;BME280_humidity;BME280_pressure;Samples;Min_cycle;Max_cycle;Signal;HPM_P1;HPM_P2
2024/03/29 00:01:59;;;;;;;;;;;;;;;3.65;100.00;94841.97;5045575;28;20008;-72
2024/03/29 00:04:25;;;;;;;;;;;;;;;3.65;100.00;94835.03;5045697;28;19945;-76
2024/03/29 00:06:51;;;;;;;;;;;;;;;3.63;100.00;94818.06;5063375;28;20248;-80
2024/03/29 00:09:17;;;;;;;;;;;;;;;3.62;100.00;94819.09;5063322;28;19964;-71
2024/03/29 00:11:43;;;;;;;;;;;;;;;3.60;100.00;94810.75;5045643;28;19942;-70
2024/03/29 00:14:09;;;;;;;;;;;;;;;3.56;100.00;94815.53;5063337;28;20241;-70
2024/03/29 00:16:34;;;;;;;;;;;;;;;3.54;100.00;94811.59;5028804;28;19938;-70
2024/03/29 00:19:00;;;;;;;;;;;;;;;3.51;100.00;94793.88;5045618;28;19939;-70
2024/03/29 00:21:26;;;;;;;;;;;;;;;3.48;100.00;94786.53;5046347;28;20215;-70
2024/03/29 00:23:52;;;;;;;;;;;;;;;3.44;100.00;94781.78;5042375;28;19959;-75
2024/03/29 00:26:18;;;;;;;;;;;;;;;3.41;99.43;94771.06;5042182;28;19943;-70
2024/03/29 00:28:43;;;;;;;;;;;;;;;3.39;99.80;94757.53;5042106;28;19940;-69
2024/03/29 00:31:09;;;;;;;;;;;;;;;3.37;99.88;94751.75;5043220;28;19957;-69
2024/03/29 00:33:35;;;;;;;;;;;;;;;3.35;99.87;94741.59;5041996;28;19987;-69
2024/03/29 00:36:01;;;;;;;;;;;;;;;3.35;100.00;94736.41;5045245;28;20170;-70
2024/03/29 00:38:27;;;;;;;;;;;;;;;3.33;100.00;94722.88;5046932;28;20222;-70
2024/03/29 00:40:53;;;;;;;;;;;;;;;3.30;99.54;94710.38;5046673;28;19932;-69
2024/03/29 00:43:19;;;;;;;;;;;;;;;3.29;100.00;94718.34;5046633;28;19933;-74
2024/03/29 00:45:44;;;;;;;;;;;;;;;3.27;100.00;94734.09;5047379;28;19940;-72
2024/03/29 00:48:10;;;;;;;;;;;;;;;3.27;99.74;94743.69;5045347;28;20002;-73
2024/03/29 00:50:37;;;;;;;;;;;;;;;3.27;100.00;94744.47;5047166;28;19953;-73
2024/03/29 00:53:04;;;;;;;;;;;;;;;3.29;100.00;94758.00;5046745;28;19941;-74
2024/03/29 00:55:30;;;;;;;;;;;;;;;3.28;100.00;94753.84;5046366;28;19929;-72
2024/03/29 00:57:56;;;;;;;;;;;;;;;3.28;100.00;94753.06;5046915;28;19935;-72
2024/03/29 01:00:21;;;;;;;;;;;;;;;3.27;100.00;94751.44;5045164;28;19948;-73
2024/03/29 01:02:47;;;;;;;;;;;;;;;3.24;100.00;94752.69;5045223;28;19981;-70
2024/03/29 01:05:13;;;;;;;;;;;;;;;3.21;99.70;94740.94;5045522;28;19982;-69
2024/03/29 01:07:42;;;;;;;;;;;;;;;3.18;100.00;94730.22;5045319;28;19935;-71
2024/03/29 01:10:08;;;;;;;;;;;;;;;3.16;100.00;94721.88;5045668;28;19984;-70
2024/03/29 01:12:35;;;;;;;;;;;;;;;3.13;100.00;94711.91;5044979;28;19936;-69
2024/03/29 01:15:02;;;;;;;;;;;;;;;3.13;100.00;94709.31;5044846;28;19942;-69
2024/03/29 01:17:28;;;;;;;;;;;;;;;3.11;100.00;94714.75;5046431;28;20121;-70
2024/03/29 01:19:54;;;;;;;;;;;;;;;3.12;100.00;94724.09;5045665;28;19929;-69
2024/03/29 01:22:20;;;;;;;;;;;;;;;3.12;100.00;94721.50;5030069;28;20277;-71
2024/03/29 01:24:46;;;;;;;;;;;;;;;3.12;100.00;94718.91;5066713;28;20263;-71
2024/03/29 01:27:12;;;;;;;;;;;;;;;3.12;100.00;94711.13;5065718;28;19940;-72
2024/03/29 01:29:37;;;;;;;;;;;;;;;3.14;100.00;94719.47;5065699;28;19936;-71
2024/03/29 01:32:03;;;;;;;;;;;;;;;3.15;100.00;94720.25;5065724;28;19943;-71
2024/03/29 01:34:29;;;;;;;;;;;;;;;3.17;100.00;94720.84;5066198;28;19937;-71
2024/03/29 01:36:55;;;;;;;;;;;;;;;3.19;100.00;94706.69;5065621;28;20012;-72
2024/03/29 01:39:26;;;;;;;;;;;;;;;3.22;100.00;94708.06;5065819;28;19939;-73
2024/03/29 01:41:52;;;;;;;;;;;;;;;3.22;100.00;94708.84;5048482;28;19942;-68
2024/03/29 01:44:18;;;;;;;;;;;;;;;3.24;100.00;94714.59;5048478;28;19939;-70
2024/03/29 01:46:46;;;;;;;;;;;;;;;3.25;100.00;94721.38;5064957;28;20244;-69
2024/03/29 01:49:12;;;;;;;;;;;;;;;3.25;100.00;94720.56;5031804;28;19948;-69
2024/03/29 01:51:39;;;;;;;;;;;;;;;3.28;100.00;94727.94;5065154;28;20017;-69
2024/03/29 01:54:07;;;;;;;;;;;;;;;3.28;100.00;94709.81;5066094;28;19936;-69
2024/03/29 01:56:33;;;;;;;;;;;;;;;3.31;100.00;94708.56;5048148;28;19947;-69
2024/03/29 01:58:59;;;;;;;;;;;;;;;3.31;100.00;94706.75;5065755;28;19941;-71
2024/03/29 02:01:26;;;;;;;;;;;;;;;3.34;100.00;94711.53;5065324;28;19936;-72
2024/03/29 02:03:52;;;;;;;;;;;;;;;3.36;100.00;94719.88;5065125;28;20138;-72
2024/03/29 02:06:18;;;;;;;;;;;;;;;3.40;100.00;94715.84;5065029;28;19934;-72
2024/03/29 02:08:44;;;;;;;;;;;;;;;3.41;100.00;94722.59;5047171;28;19974;-71
2024/03/29 02:11:10;;;;;;;;;;;;;;;3.42;100.00;94719.03;5064902;28;19957;-71
2024/03/29 02:13:37;;;;;;;;;;;;;;;3.45;100.00;94715.19;5064876;28;19934;-75
2024/03/29 02:16:03;;;;;;;;;;;;;;;3.48;100.00;94724.34;5065426;28;19935;-75
2024/03/29 02:18:28;;;;;;;;;;;;;;;3.49;100.00;94718.94;5065037;28;20121;-75
2024/03/29 02:20:54;;;;;;;;;;;;;;;3.50;100.00;94712.75;5064773;28;19937;-76
2024/03/29 02:23:24;;;;;;;;;;;;;;;3.53;100.00;94707.16;5046834;28;19963;-76
2024/03/29 02:25:50;;;;;;;;;;;;;;;3.54;100.00;94711.31;5047017;28;19945;-76
2024/03/29 02:28:16;;;;;;;;;;;;;;;3.56;100.00;94705.91;5064895;28;19933;-77
2024/03/29 02:30:42;;;;;;;;;;;;;;;3.58;100.00;94717.63;5046389;28;19956;-76
2024/03/29 02:33:07;;;;;;;;;;;;;;;3.61;100.00;94714.63;5064464;28;19941;-69
2024/03/29 02:35:33;;;;;;;;;;;;;;;3.63;100.00;94689.28;5030992;28;19940;-77
2024/03/29 02:37:59;;;;;;;;;;;;;;;3.66;100.00;94704.41;5046759;28;19934;-77
2024/03/29 02:40:25;;;;;;;;;;;;;;;3.68;100.00;94691.22;5064780;28;19933;-76
2024/03/29 02:42:51;;;;;;;;;;;;;;;3.69;100.00;94668.69;5046940;28;19957;-76
2024/03/29 02:45:17;;;;;;;;;;;;;;;3.69;100.00;94697.97;5046595;28;19982;-77
2024/03/29 02:47:43;;;;;;;;;;;;;;;3.71;100.00;94682.22;5064318;28;19943;-76
2024/03/29 02:50:10;;;;;;;;;;;;;;;3.72;100.00;94678.63;5064193;28;20168;-69
2024/03/29 02:52:36;;;;;;;;;;;;;;;3.72;100.00;94701.97;5062978;28;19948;-73
2024/03/29 02:55:02;;;;;;;;;;;;;;;3.73;100.00;94706.91;5064960;28;19940;-72
2024/03/29 02:57:27;;;;;;;;;;;;;;;3.74;100.00;94710.28;5063808;28;19972;-73
2024/03/29 02:59:54;;;;;;;;;;;;;;;3.76;100.00;94710.84;5046418;28;19942;-73
2024/03/29 03:02:19;;;;;;;;;;;;;;;3.77;100.00;94718.44;5030297;28;19946;-73
2024/03/29 03:04:45;;;;;;;;;;;;;;;3.79;100.00;94716.41;5064016;28;19937;-74
2024/03/29 03:12:40;;;;;;;;;;;;;;;3.84;100.00;94739.91;5064473;28;19941;-78
2024/03/29 03:15:06;;;;;;;;;;;;;;;3.84;100.00;94744.25;5063717;28;19934;-78
2024/03/29 03:17:32;;;;;;;;;;;;;;;3.85;100.00;94736.28;5046782;28;19940;-79
2024/03/29 03:19:58;;;;;;;;;;;;;;;3.87;100.00;94754.22;5046206;28;19995;-79
2024/03/29 03:22:24;;;;;;;;;;;;;;;3.89;100.00;94770.34;5046430;28;19943;-79
2024/03/29 03:24:50;;;;;;;;;;;;;;;3.89;100.00;94747.00;5064444;28;19970;-79
2024/03/29 03:27:16;;;;;;;;;;;;;;;3.89;100.00;94778.13;5064359;28;19941;-72
2024/03/29 03:29:41;;;;;;;;;;;;;;;3.91;100.00;94770.94;5030232;28;19938;-74
2024/03/29 03:32:07;;;;;;;;;;;;;;;3.91;100.00;94750.19;5063712;28;19979;-69
2024/03/29 03:34:33;;;;;;;;;;;;;;;3.92;100.00;94774.31;5063715;28;20240;-69
2024/03/29 03:36:59;;;;;;;;;;;;;;;3.92;100.00;94745.78;5062549;28;19946;-69
2024/03/29 03:39:25;;;;;;;;;;;;;;;3.95;100.00;94720.22;5046547;28;19946;-69
2024/03/29 03:41:51;;;;;;;;;;;;;;;3.95;100.00;94683.91;5045788;28;19986;-70
2024/03/29 03:44:18;;;;;;;;;;;;;;;3.99;100.00;94711.00;5064149;28;19941;-69
2024/03/29 03:46:43;;;;;;;;;;;;;;;4.04;100.00;94690.34;5063187;28;20111;-70
2024/03/29 03:49:09;;;;;;;;;;;;;;;4.12;100.00;94660.75;5063640;28;19965;-70
2024/03/29 03:51:35;;;;;;;;;;;;;;;4.17;100.00;94655.66;5029181;28;20012;-70
2024/03/29 03:54:01;;;;;;;;;;;;;;;4.21;100.00;94654.22;5029218;28;19980;-69
2024/03/29 03:56:27;;;;;;;;;;;;;;;4.26;100.00;94650.94;5063717;28;19930;-70
2024/03/29 03:58:52;;;;;;;;;;;;;;;4.31;100.00;94650.31;5063501;28;19938;-70
2024/03/29 04:01:18;;;;;;;;;;;;;;;4.34;100.00;94645.44;5045798;28;19985;-71
2024/03/29 04:03:44;;;;;;;;;;;;;;;4.34;100.00;94616.91;5045760;28;19930;-75
2024/03/29 04:06:10;;;;;;;;;;;;;;;4.37;100.00;94665.75;5046444;28;20021;-73
2024/03/29 04:08:36;;;;;;;;;;;;;;;4.40;100.00;94675.69;5047176;28;19957;-72
2024/03/29 04:11:03;;;;;;;;;;;;;;;4.41;100.00;94676.47;5049414;28;20027;-73
2024/03/29 04:13:29;;;;;;;;;;;;;;;4.42;100.00;94691.81;5049460;28;19942;-71
2024/03/29 04:16:07;;;;;;;;;;;;;;;4.39;100.00;94684.50;5067679;28;20131;-72
2024/03/29 04:18:33;;;;;;;;;;;;;;;4.36;100.00;94708.28;5049821;28;20140;-72
2024/03/29 04:21:00;;;;;;;;;;;;;;;4.33;100.00;94719.13;5049830;28;19941;-71
2024/03/29 04:23:26;;;;;;;;;;;;;;;4.31;100.00;94731.53;5029525;28;19974;-73
2024/03/29 04:25:52;;;;;;;;;;;;;;;4.32;100.00;94750.47;5045905;28;20323;-73
2024/03/29 04:28:18;;;;;;;;;;;;;;;4.29;100.00;94756.91;5046901;28;19945;-73
2024/03/29 04:30:57;;;;;;;;;;;;;;;4.27;100.00;94749.31;5047108;28;19957;-73
2024/03/29 04:33:23;;;;;;;;;;;;;;;4.25;100.00;94727.22;5047347;28;19952;-73
2024/03/29 04:35:53;;;;;;;;;;;;;;;4.16;100.00;94716.34;5046462;28;20157;-74
2024/03/29 04:38:19;;;;;;;;;;;;;;;4.13;100.00;94727.16;5029044;28;19938;-74
2024/03/29 04:40:45;;;;;;;;;;;;;;;4.13;100.00;94732.34;5046716;28;19941;-71
2024/03/29 04:43:11;;;;;;;;;;;;;;;4.11;100.00;94699.84;5047274;28;19948;-70
2024/03/29 04:45:37;;;;;;;;;;;;;;;4.09;100.00;94707.06;5045444;28;19946;-70
2024/03/29 04:48:02;;;;;;;;;;;;;;;4.08;100.00;94693.31;5046629;28;19936;-70
2024/03/29 04:50:28;;;;;;;;;;;;;;;4.11;100.00;94703.25;5046449;28;20247;-70
2024/03/29 04:52:54;;;;;;;;;;;;;;;4.15;100.00;94698.41;5046504;28;19945;-70
2024/03/29 04:55:20;;;;;;;;;;;;;;;4.20;100.00;94698.53;5046445;28;19931;-71
2024/03/29 04:57:46;;;;;;;;;;;;;;;4.25;100.00;94699.47;5047217;28;19935;-71
2024/03/29 05:00:12;;;;;;;;;;;;;;;4.31;100.00;94704.78;5046379;28;19941;-77
2024/03/29 05:02:38;;;;;;;;;;;;;;;4.34;100.00;94712.91;5045144;28;19950;-77
2024/03/29 05:05:04;;;;;;;;;;;;;;;4.38;100.00;94714.03;5046264;28;19938;-76
2024/03/29 05:07:30;;;;;;;;;;;;;;;4.40;100.00;94695.66;5045090;28;19962;-76
2024/03/29 05:09:56;;;;;;;;;;;;;;;4.42;100.00;94696.22;5046113;28;20219;-76
2024/03/29 05:12:22;;;;;;;;;;;;;;;4.45;100.00;94700.97;5046849;28;19954;-76
2024/03/29 05:14:49;;;;;;;;;;;;;;;4.45;100.00;94703.56;5046107;28;19935;-75
2024/03/29 05:17:16;;;;;;;;;;;;;;;4.47;100.00;94693.75;5046608;28;19947;-68
2024/03/29 05:19:41;;;;;;;;;;;;;;;4.49;100.00;94717.69;5045042;28;19941;-71
2024/03/29 05:22:07;;;;;;;;;;;;;;;4.52;100.00;94708.69;5044662;28;19942;-78
2024/03/29 05:24:33;;;;;;;;;;;;;;;4.54;100.00;94711.84;5065303;28;19964;-77
2024/03/29 05:26:59;;;;;;;;;;;;;;;4.56;100.00;94713.19;5065833;28;19941;-75
2024/03/29 05:29:25;;;;;;;;;;;;;;;4.60;100.00;94714.34;5065827;28;19960;-75
2024/03/29 05:31:51;;;;;;;;;;;;;;;4.62;100.00;94709.72;5065758;28;20278;-75
2024/03/29 05:34:16;;;;;;;;;;;;;;;4.65;100.00;94726.66;5066234;28;19943;-75
2024/03/29 05:36:44;;;;;;;;;;;;;;;4.67;100.00;94715.03;5065534;28;19949;-75
2024/03/29 05:39:09;;;;;;;;;;;;;;;4.72;100.00;94716.16;5065702;28;19946;-73
2024/03/29 05:41:35;;;;;;;;;;;;;;;4.77;100.00;94724.09;5066113;28;19966;-74
2024/03/29 05:44:01;;;;;;;;;;;;;;;4.81;100.00;94733.00;5047897;28;19934;-74
2024/03/29 05:46:27;;;;;;;;;;;;;;;4.88;100.00;94733.69;5048502;28;19938;-74
2024/03/29 05:48:53;;;;;;;;;;;;;;;4.91;100.00;94720.22;5047670;28;19938;-73
2024/03/29 05:51:18;;;;;;;;;;;;;;;4.94;100.00;94719.03;5065859;28;19955;-74
2024/03/29 05:53:44;;;;;;;;;;;;;;;4.96;100.00;94733.34;5031319;28;19985;-71
2024/03/29 05:56:11;;;;;;;;;;;;;;;4.99;100.00;94724.31;5047505;28;19937;-75
2024/03/29 05:58:37;;;;;;;;;;;;;;;5.02;100.00;94705.69;5065422;28;19944;-76
2024/03/29 06:01:03;;;;;;;;;;;;;;;5.08;100.00;94677.00;5065246;28;19943;-76
2024/03/29 06:03:29;;;;;;;;;;;;;;;5.29;100.00;94703.41;5065099;28;19935;-76
2024/03/29 06:05:55;;;;;;;;;;;;;;;5.90;100.00;94688.28;5065069;28;20102;-76
2024/03/29 06:08:23;;;;;;;;;;;;;;;6.52;99.47;94673.75;5063851;28;19962;-77
2024/03/29 06:10:49;;;;;;;;;;;;;;;6.82;96.58;94653.38;5064940;28;19959;-77
2024/03/29 06:13:29;;;;;;;;;;;;;;;6.89;93.26;94650.63;5065010;28;19933;-73
2024/03/29 06:18:39;;;;;;;;;;;;;;;6.61;90.01;94647.06;5047793;28;19944;-75
2024/03/29 06:21:05;;;;;;;;;;;;;;;6.45;90.72;94668.72;5031205;28;19944;-75
2024/03/29 06:23:31;;;;;;;;;;;;;;;6.30;93.76;94684.84;5064671;28;19960;-75
2024/03/29 06:25:57;;;;;;;;;;;;;;;6.19;98.27;94696.88;5047707;28;20089;-75
2024/03/29 06:28:23;;;;;;;;;;;;;;;6.12;98.24;94695.47;5065126;28;20218;-74
2024/03/29 06:30:48;;;;;;;;;;;;;;;6.10;96.98;94675.66;5064562;28;19936;-69
2024/03/29 06:33:14;;;;;;;;;;;;;;;6.12;99.25;94680.63;5031163;28;19954;-74
2024/03/29 06:35:40;;;;;;;;;;;;;;;6.12;97.31;94677.25;5047401;28;19944;-70
2024/03/29 06:38:06;;;;;;;;;;;;;;;6.12;98.89;94682.44;5064348;28;20165;-69
2024/03/29 06:40:32;;;;;;;;;;;;;;;6.10;98.29;94669.66;5064456;28;20140;-70
2024/03/29 06:42:59;;;;;;;;;;;;;;;6.09;100.00;94673.31;5031177;28;20229;-69
2024/03/29 06:45:25;;;;;;;;;;;;;;;6.05;98.86;94672.97;5030030;28;19932;-70
2024/03/29 06:47:52;;;;;;;;;;;;;;;6.05;100.00;94664.38;5063940;28;19941;-70
2024/03/29 06:50:18;;;;;;;;;;;;;;;6.05;100.00;94665.16;5046507;28;19939;-72
2024/03/29 06:52:44;;;;;;;;;;;;;;;6.06;100.00;94656.31;5047210;28;20003;-78
2024/03/29 06:55:10;;;;;;;;;;;;;;;6.10;100.00;94648.84;5046387;28;19941;-78
2024/03/29 06:57:35;;;;;;;;;;;;;;;6.15;100.00;94676.75;5047010;28;19969;-77
2024/03/29 07:00:03;;;;;;;;;;;;;;;6.17;100.00;94659.88;5047282;28;19971;-77
2024/03/29 07:02:30;;;;;;;;;;;;;;;6.18;99.54;94658.09;5063561;28;20198;-78
2024/03/29 07:04:56;;;;;;;;;;;;;;;6.19;100.00;94654.47;5064596;28;20220;-78
2024/03/29 07:07:22;;;;;;;;;;;;;;;6.17;100.00;94648.69;5064029;28;19977;-70
2024/03/29 07:09:48;;;;;;;;;;;;;;;6.16;100.00;94647.13;5063865;28;19961;-73
2024/03/29 07:12:14;;;;;;;;;;;;;;;6.15;100.00;94641.13;5064383;28;19956;-69
2024/03/29 07:14:40;;;;;;;;;;;;;;;6.15;100.00;94664.53;5030513;28;19941;-69
2024/03/29 07:17:06;;;;;;;;;;;;;;;6.15;100.00;94679.38;5064672;28;19940;-68
2024/03/29 07:19:31;;;;;;;;;;;;;;;6.15;100.00;94690.56;5064623;28;20320;-69
2024/03/29 07:21:57;;;;;;;;;;;;;;;6.15;100.00;94703.56;5046644;28;19939;-68
2024/03/29 07:24:23;;;;;;;;;;;;;;;6.14;100.00;94667.41;5063648;28;19975;-69
2024/03/29 07:26:49;;;;;;;;;;;;;;;6.13;100.00;94692.59;5064346;28;20013;-73
2024/03/29 07:29:15;;;;;;;;;;;;;;;6.12;100.00;94698.06;5063779;28;20048;-74
2024/03/29 07:31:41;;;;;;;;;;;;;;;6.13;100.00;94692.59;5064222;28;19953;-72
2024/03/29 07:34:06;;;;;;;;;;;;;;;6.15;100.00;94721.78;5046878;28;19968;-73
2024/03/29 07:36:35;;;;;;;;;;;;;;;6.15;100.00;94742.59;5064236;28;19931;-73
2024/03/29 07:39:01;;;;;;;;;;;;;;;6.11;100.00;94759.75;5063695;28;19941;-73
2024/03/29 07:41:27;;;;;;;;;;;;;;;6.08;100.00;94757.56;5063392;28;19956;-73
2024/03/29 07:43:56;;;;;;;;;;;;;;;6.02;100.00;94787.91;5065628;28;20215;-73
2024/03/29 07:46:22;;;;;;;;;;;;;;;5.96;100.00;94798.44;5049638;28;19936;-69
2024/03/29 07:48:49;;;;;;;;;;;;;;;5.89;100.00;94795.94;5068426;28;20221;-77
2024/03/29 07:51:15;;;;;;;;;;;;;;;5.82;100.00;94798.66;5050658;28;19954;-78
2024/03/29 07:53:40;;;;;;;;;;;;;;;5.81;100.00;94814.50;5033993;28;20011;-78
2024/03/29 07:56:06;;;;;;;;;;;;;;;5.81;100.00;94801.50;5067641;28;19990;-77
2024/03/29 07:58:32;;;;;;;;;;;;;;;5.83;100.00;94797.63;5067464;28;19937;-78
2024/03/29 08:00:58;;;;;;;;;;;;;;;5.83;100.00;94789.84;5067988;28;19953;-77
2024/03/29 08:03:24;;;;;;;;;;;;;;;5.82;100.00;94783.06;5067402;28;20241;-77
2024/03/29 08:06:05;;;;;;;;;;;;;;;5.84;100.00;94778.41;5067325;28;20003;-73
2024/03/29 08:08:32;;;;;;;;;;;;;;;5.88;100.00;94786.56;5049702;28;19951;-81
2024/03/29 08:10:58;;;;;;;;;;;;;;;5.94;100.00;94803.06;5067250;28;19943;-83
2024/03/29 08:13:27;;;;;;;;;;;;;;;5.97;100.00;94805.25;5067523;28;19945;-81
2024/03/29 08:16:00;;;;;;;;;;;;;;;6.03;100.00;94796.53;5067207;28;20019;-80
2024/03/29 08:18:26;;;;;;;;;;;;;;;6.08;100.00;94807.81;5067367;28;20222;-82
2024/03/29 08:20:52;;;;;;;;;;;;;;;6.13;100.00;94807.09;5049205;28;19941;-82
2024/03/29 08:23:18;;;;;;;;;;;;;;;6.17;100.00;94810.06;5045667;28;19966;-73
2024/03/29 08:25:44;;;;;;;;;;;;;;;6.20;100.00;94794.00;5045909;28;19944;-73
2024/03/29 08:28:10;;;;;;;;;;;;;;;6.25;100.00;94799.28;5029291;28;19952;-73
2024/03/29 08:30:36;;;;;;;;;;;;;;;6.30;100.00;94802.78;5046906;28;19936;-73
2024/03/29 08:33:02;;;;;;;;;;;;;;;6.37;100.00;94809.66;5046235;28;20003;-73
2024/03/29 08:35:32;;;;;;;;;;;;;;;6.42;100.00;94813.16;5046225;28;19938;-74
2024/03/29 08:38:00;;;;;;;;;;;;;;;6.49;100.00;94810.44;5063092;28;19940;-74
2024/03/29 08:40:28;;;;;;;;;;;;;;;6.55;100.00;94816.50;5046798;28;20127;-74
2024/03/29 08:42:55;;;;;;;;;;;;;;;6.61;100.00;94821.56;5046715;28;19935;-74
2024/03/29 08:45:21;;;;;;;;;;;;;;;6.66;100.00;94826.88;5046677;28;19945;-75
2024/03/29 08:47:47;;;;;;;;;;;;;;;6.70;100.00;94822.78;5046122;28;19980;-74
2024/03/29 08:50:13;;;;;;;;;;;;;;;6.74;100.00;94812.69;5045506;28;19949;-75
2024/03/29 08:52:39;;;;;;;;;;;;;;;6.84;100.00;94809.47;5061874;28;20281;-74
2024/03/29 08:55:06;;;;;;;;;;;;;;;6.93;100.00;94807.28;5044052;28;20109;-75
2024/03/29 08:57:32;;;;;;;;;;;;;;;6.99;100.00;94814.16;5046473;28;20113;-75
2024/03/29 08:59:58;;;;;;;;;;;;;;;7.04;100.00;94811.66;5029549;28;19965;-69
2024/03/29 09:02:24;;;;;;;;;;;;;;;7.10;100.00;94797.66;5045967;28;20012;-78
2024/03/29 09:04:50;;;;;;;;;;;;;;;7.18;100.00;94812.13;5045750;28;19979;-77
2024/03/29 09:07:16;;;;;;;;;;;;;;;7.27;100.00;94806.28;5046324;28;20255;-77
2024/03/29 09:09:41;;;;;;;;;;;;;;;7.37;100.00;94812.66;5046615;28;19952;-77
2024/03/29 09:12:08;;;;;;;;;;;;;;;7.44;100.00;94811.50;5046123;28;19958;-77
2024/03/29 09:14:34;;;;;;;;;;;;;;;7.51;100.00;94808.72;5046076;28;19939;-77
2024/03/29 09:17:00;;;;;;;;;;;;;;;7.59;100.00;94826.56;5046568;28;19953;-69
2024/03/29 09:19:26;;;;;;;;;;;;;;;7.66;100.00;94827.19;5061485;28;19939;-74
2024/03/29 09:21:52;;;;;;;;;;;;;;;7.72;100.00;94835.88;5046216;28;20232;-75
2024/03/29 09:24:20;;;;;;;;;;;;;;;7.77;100.00;94846.41;5044598;28;20009;-76
2024/03/29 09:26:48;;;;;;;;;;;;;;;7.81;100.00;94831.03;5046599;28;19943;-75
2024/03/29 09:29:15;;;;;;;;;;;;;;;7.84;100.00;94827.97;5044726;28;19947;-75
2024/03/29 09:31:41;;;;;;;;;;;;;;;7.89;100.00;94807.16;5044502;28;20165;-75
2024/03/29 09:34:09;;;;;;;;;;;;;;;7.98;100.00;94800.50;5046577;28;19942;-75
2024/03/29 09:36:35;;;;;;;;;;;;;;;8.11;100.00;94787.09;5045650;28;19931;-78
2024/03/29 09:39:00;;;;;;;;;;;;;;;8.29;100.00;94786.00;5044566;28;19959;-75
2024/03/29 09:41:28;;;;;;;;;;;;;;;8.47;100.00;94774.47;5046148;28;19932;-75
2024/03/29 09:43:57;;;;;;;;;;;;;;;8.62;100.00;94770.44;5045193;28;19959;-76
2024/03/29 09:46:23;;;;;;;;;;;;;;;8.76;100.00;94761.16;5045547;28;20121;-76
2024/03/29 09:48:50;;;;;;;;;;;;;;;8.87;100.00;94744.53;5045482;28;19934;-75
2024/03/29 09:51:16;;;;;;;;;;;;;;;9.00;100.00;94751.16;5045637;28;19930;-75
2024/03/29 09:53:43;;;;;;;;;;;;;;;9.09;100.00;94757.53;5045356;28;19946;-76
2024/03/29 09:56:09;;;;;;;;;;;;;;;9.21;100.00;94744.25;5045017;28;19941;-73
2024/03/29 09:58:36;;;;;;;;;;;;;;;9.35;100.00;94740.19;5045246;28;19950;-76
2024/03/29 10:01:03;;;;;;;;;;;;;;;9.50;100.00;94734.25;5044160;28;20203;-76
2024/03/29 10:03:29;;;;;;;;;;;;;;;9.68;100.00;94758.41;5045155;28;19936;-76
2024/03/29 10:05:59;;;;;;;;;;;;;;;9.83;100.00;94763.75;5044846;28;19938;-76
2024/03/29 10:08:29;;;;;;;;;;;;;;;10.01;100.00;94759.13;5044994;28;19958;-76
2024/03/29 10:10:58;;;;;;;;;;;;;;;10.34;100.00;94757.97;5045030;28;19935;-76
2024/03/29 10:13:24;;;;;;;;;;;;;;;10.69;100.00;94732.91;5044912;28;20148;-75
2024/03/29 10:15:55;;;;;;;;;;;;;;;10.85;100.00;94713.47;5044968;28;19934;-74
2024/03/29 10:18:27;;;;;;;;;;;;;;;10.95;100.00;94703.00;5045768;28;19944;-74
2024/03/29 10:21:03;;;;;;;;;;;;;;;10.99;100.00;94718.22;5045489;28;19985;-74
2024/03/29 10:23:30;;;;;;;;;;;;;;;10.98;100.00;94712.16;5055505;28;19969;-74
2024/03/29 10:25:56;;;;;;;;;;;;;;;11.03;100.00;94733.16;5064700;28;19942;-78
2024/03/29 10:28:22;;;;;;;;;;;;;;;11.27;100.00;94748.38;5065451;28;19925;-75
2024/03/29 10:30:48;;;;;;;;;;;;;;;11.76;100.00;94727.56;5064389;28;20227;-69
2024/03/29 10:33:15;;;;;;;;;;;;;;;12.10;100.00;94677.03;5064499;28;19957;-70
2024/03/29 10:35:44;;;;;;;;;;;;;;;12.26;100.00;94669.81;5046904;28;19945;-69
2024/03/29 10:38:10;;;;;;;;;;;;;;;12.22;100.00;94673.28;5065247;28;19935;-69
2024/03/29 10:40:44;;;;;;;;;;;;;;;12.13;100.00;94652.81;5064654;28;19945;-69
2024/03/29 10:43:12;;;;;;;;;;;;;;;12.08;100.00;94673.09;5047584;28;19939;-70
2024/03/29 10:45:38;;;;;;;;;;;;;;;12.05;100.00;94700.66;5063507;28;19946;-70
2024/03/29 10:48:07;;;;;;;;;;;;;;;12.06;100.00;94681.25;5064869;28;19941;-69
2024/03/29 10:50:35;;;;;;;;;;;;;;;12.23;100.00;94709.81;5047053;28;19938;-75
2024/03/29 10:53:01;;;;;;;;;;;;;;;12.39;100.00;94685.00;5030567;28;19957;-76
2024/03/29 10:55:32;;;;;;;;;;;;;;;12.49;100.00;94707.81;5046594;28;19942;-75
2024/03/29 10:58:00;;;;;;;;;;;;;;;12.49;100.00;94651.81;5047088;28;20210;-75
2024/03/29 11:00:28;;;;;;;;;;;;;;;12.41;100.00;94663.72;5064078;28;19941;-76
2024/03/29 11:03:13;;;;;;;;;;;;;;;12.39;100.00;94668.47;5047195;28;19942;-76
2024/03/29 11:05:42;;;;;;;;;;;;;;;12.41;100.00;94679.50;5064017;28;20010;-75
2024/03/29 11:08:08;;;;;;;;;;;;;;;12.45;100.00;94688.41;5063956;28;19949;-75
2024/03/29 11:10:46;;;;;;;;;;;;;;;12.56;100.00;94687.28;5046309;28;19952;-75
2024/03/29 11:13:21;;;;;;;;;;;;;;;12.68;100.00;94658.00;5042361;28;19958;-75
2024/03/29 11:15:47;;;;;;;;;;;;;;;12.72;100.00;94660.84;5043007;28;19939;-76
2024/03/29 11:18:16;;;;;;;;;;;;;;;12.87;100.00;94647.59;5025293;28;19937;-76
2024/03/29 11:20:46;;;;;;;;;;;;;;;13.02;100.00;94622.19;5042186;28;20150;-75
2024/03/29 11:23:14;;;;;;;;;;;;;;;13.14;100.00;94604.19;5025584;28;19975;-76
2024/03/29 11:25:41;;;;;;;;;;;;;;;13.19;83.90;94506.78;5042052;28;19935;-73
2024/03/29 11:28:08;;;;;;;;;;;;;;;13.31;96.72;94585.34;5042654;28;20207;-75
2024/03/29 11:30:41;;;;;;;;;;;;;;;13.44;98.75;94611.03;5042065;28;20105;-74
2024/03/29 11:33:07;;;;;;;;;;;;;;;13.52;93.87;94578.81;5042531;28;19957;-74
2024/03/29 11:35:33;;;;;;;;;;;;;;;13.53;91.02;94569.81;5026148;28;20120;-73
2024/03/29 11:37:59;;;;;;;;;;;;;;;13.53;90.54;94580.34;5042815;28;19945;-74
2024/03/29 11:40:29;;;;;;;;;;;;;;;13.52;93.72;94612.22;5042791;28;19935;-74
2024/03/29 11:42:55;;;;;;;;;;;;;;;13.50;86.24;94574.88;5042007;28;20020;-73
2024/03/29 11:45:23;;;;;;;;;;;;;;;13.44;89.21;94604.94;5063045;28;20130;-73
2024/03/29 11:47:50;;;;;;;;;;;;;;;13.40;95.45;94646.88;5063853;28;20241;-78
2024/03/29 11:50:16;;;;;;;;;;;;;;;13.37;90.33;94623.72;5064412;28;19957;-78
2024/03/29 11:52:42;;;;;;;;;;;;;;;13.35;93.99;94646.91;5063075;28;20148;-77
2024/03/29 11:55:08;;;;;;;;;;;;;;;13.37;98.13;94677.16;5046226;28;19943;-77
2024/03/29 11:57:38;;;;;;;;;;;;;;;13.43;93.54;94645.53;5063464;28;19940;-77
2024/03/29 12:00:05;;;;;;;;;;;;;;;13.42;89.95;94615.78;5062556;28;19940;-77
2024/03/29 12:02:31;;;;;;;;;;;;;;;13.44;90.82;94616.28;5029233;28;20124;-74
2024/03/29 12:04:57;;;;;;;;;;;;;;;13.49;91.42;94607.53;5063873;28;19937;-70
2024/03/29 12:07:23;;;;;;;;;;;;;;;13.56;96.20;94642.97;5063399;28;19933;-78
2024/03/29 12:09:49;;;;;;;;;;;;;;;13.66;96.09;94644.72;5045433;28;20001;-77
2024/03/29 12:12:17;;;;;;;;;;;;;;;13.77;96.30;94648.03;5063295;28;19956;-77
2024/03/29 12:14:43;;;;;;;;;;;;;;;13.89;97.07;94642.34;5063300;28;19931;-77
2024/03/29 12:17:10;;;;;;;;;;;;;;;13.99;99.96;94656.19;5063872;28;19937;-77
2024/03/29 12:19:38;;;;;;;;;;;;;;;14.09;94.62;94622.84;5063298;28;19937;-77
2024/03/29 12:22:04;;;;;;;;;;;;;;;14.16;93.26;94625.94;5046166;28;19940;-74
2024/03/29 12:24:31;;;;;;;;;;;;;;;14.24;92.36;94621.84;5063110;28;20311;-77
2024/03/29 12:26:57;;;;;;;;;;;;;;;14.29;85.22;94577.75;5029737;28;19943;-77
2024/03/29 12:29:23;;;;;;;;;;;;;;;14.35;83.78;94565.28;5046079;28;19951;-77
2024/03/29 12:31:56;;;;;;;;;;;;;;;14.48;88.56;94588.28;5048954;28;19939;-77
2024/03/29 12:34:22;;;;;;;;;;;;;;;14.68;88.61;94605.69;5066735;28;20120;-77
2024/03/29 12:36:48;;;;;;;;;;;;;;;14.81;77.80;94546.09;5048991;28;20245;-77
2024/03/29 12:39:15;;;;;;;;;;;;;;;14.90;76.53;94531.13;5067310;28;19950;-74
2024/03/29 12:41:41;;;;;;;;;;;;;;;14.92;75.83;94542.19;5067494;28;19927;-70
2024/03/29 12:44:07;;;;;;;;;;;;;;;14.88;72.30;94511.41;5066688;28;19952;-74
2024/03/29 12:46:32;;;;;;;;;;;;;;;14.88;82.16;94566.81;5066876;28;19967;-74
2024/03/29 12:48:59;;;;;;;;;;;;;;;14.95;87.62;94593.59;5049107;28;19944;-74
2024/03/29 12:51:26;;;;;;;;;;;;;;;14.99;87.28;94587.47;5066600;28;20218;-74